Stations météo

réclame
Mon MeteoGroup
Lyneham, Grande-Bretagne (3740): Température de l'air & dewpoint: 12.02.2019 16:00:00 - 18.02.2019 16:00:00 (GMT)Lyneham, Grande-Bretagne (3740): Température de l'air -20cm & Température de l'air -100cm: 12.02.2019 16:00:00 - 18.02.2019 16:00:00 (GMT)Lyneham, Grande-Bretagne (3740): Vitesse du vent: 12.02.2019 16:00:00 - 18.02.2019 16:00:00 (GMT)Lyneham, Grande-Bretagne (3740): Direction du vent: 12.02.2019 16:00:00 - 18.02.2019 16:00:00 (GMT)Lyneham, Grande-Bretagne (3740): reduced air pressure: 12.02.2019 16:00:00 - 18.02.2019 16:00:00 (GMT)Lyneham, Grande-Bretagne (3740): Ensoleillement: 12.02.2019 16:00:00 - 18.02.2019 16:00:00 (GMT)Lyneham, Grande-Bretagne (3740): Quantités de précipitations: 12.02.2019 16:00:00 - 18.02.2019 16:00:00 (GMT)
Date & Time tt [°C] td [°C] tt -20cm [°C] tt -100cm [°C] ff [km/h] ff [knt] dd ppp [hPa] sd [min] rr [mm]
18.02.2019 16:00:00 7,2 5,7 - - 8 4 SW 1013,9 0 0,0
18.02.2019 15:00:00 7,1 6,0 - - 8 4 SSW 1013,8 0 0,4
18.02.2019 14:00:00 6,7 5,2 - - 15 8 WSW 1014,0 0 1,0
18.02.2019 13:00:00 9,9 6,3 - - 15 8 SW 1013,5 0 0,0
18.02.2019 12:00:00 9,4 6,9 - - 13 7 SSW 1013,9 0 0,0
18.02.2019 11:00:00 9,3 7,1 - - 13 7 SSW 1014,0 0 0,0
18.02.2019 10:00:00 9,0 7,3 - - 11 6 SSW 1014,0 0 0,0
18.02.2019 09:00:00 8,7 7,2 6,5 7,2 13 7 SSW 1014,2 0 0,0
18.02.2019 08:00:00 7,7 6,7 - - 11 6 S 1014,0 0 0,0
18.02.2019 07:00:00 7,5 6,1 - - 9 5 S 1013,8 0 0,0
18.02.2019 06:00:00 7,7 6,4 - - 11 6 SW 1013,6 0 0,0
18.02.2019 05:00:00 7,5 6,6 - - 11 6 S 1013,6 0 0,0
18.02.2019 04:00:00 7,5 6,6 - - 13 7 S 1014,0 0 0,0
18.02.2019 03:00:00 7,5 6,6 - - 13 7 S 1014,2 0 0,0
18.02.2019 02:00:00 7,1 6,2 - - 11 6 S 1014,7 0 0,0
18.02.2019 01:00:00 7,2 6,1 - - 11 6 S 1014,8 0 0,0
18.02.2019 00:00:00 7,4 6,5 - - 13 7 S 1015,0 - 0,0
17.02.2019 23:00:00 7,4 6,5 - - 13 7 S 1015,0 0 0,0
17.02.2019 22:00:00 7,4 6,3 - - 11 6 S 1014,7 0 0,0
17.02.2019 21:00:00 7,8 6,6 - - 13 7 S 1014,5 0 0,0
17.02.2019 20:00:00 8,4 6,8 - - 13 7 S 1014,2 0 0,0
17.02.2019 19:00:00 9,2 7,2 - - 18 10 S 1013,9 0 0,0
17.02.2019 18:00:00 9,4 7,0 - - 16 9 SSW 1013,7 0 0,0
17.02.2019 17:00:00 10,3 6,8 - - 18 10 S 1013,1 6 0,0
17.02.2019 16:00:00 11,1 7,2 - - 18 10 SSW 1012,8 0 0,0
17.02.2019 15:00:00 11,3 8,5 - - 16 9 S 1012,9 0 0,0
17.02.2019 14:00:00 10,6 8,7 - - 16 9 SSW 1012,9 0 0,0
17.02.2019 13:00:00 10,2 8,3 - - 16 9 SSW 1013,2 0 0,0
17.02.2019 12:00:00 10,9 7,9 - - 16 9 S 1013,2 18 0,0
17.02.2019 11:00:00 10,8 7,8 - - 13 7 S 1013,3 0 0,0
17.02.2019 10:00:00 9,0 6,4 - - 18 10 S 1013,0 42 0,0
17.02.2019 09:00:00 8,1 5,6 6,4 7,0 22 12 S 1013,1 60 0,0
17.02.2019 08:00:00 7,3 5,1 - - 21 11 S 1012,8 0 0,0
17.02.2019 07:00:00 6,6 5,0 - - 29 16 SSE 1012,9 0 0,0
17.02.2019 06:00:00 7,0 5,0 - - 24 13 SSE 1014,0 0 0,0
17.02.2019 05:00:00 7,2 5,5 - - 18 10 S 1014,6 0 0,0
17.02.2019 04:00:00 7,2 5,9 - - 16 9 S 1015,2 0 0,0
17.02.2019 03:00:00 7,3 6,3 - - 18 10 SSE 1016,1 0 0,0
17.02.2019 02:00:00 7,7 6,9 - - 21 11 SSE 1016,8 0 0,0
17.02.2019 01:00:00 8,7 7,9 - - 26 14 SSE 1017,7 0 0,0
17.02.2019 00:00:00 9,0 7,8 - - 21 11 S 1018,7 - 0,0
16.02.2019 23:00:00 9,1 7,9 - - 18 10 S 1019,3 0 0,0
16.02.2019 22:00:00 9,4 8,4 - - 16 9 S 1020,1 0 0,0
16.02.2019 21:00:00 9,6 8,8 - - 15 8 S 1020,3 0 0,0
16.02.2019 20:00:00 9,8 9,0 - - 18 10 S 1020,5 0 0,0
16.02.2019 19:00:00 10,2 9,1 - - 16 9 S 1020,6 0 0,0
16.02.2019 18:00:00 10,6 9,2 - - 13 7 S 1020,5 0 0,0
16.02.2019 17:00:00 10,9 9,4 - - 16 9 S 1020,2 0 0,0
16.02.2019 16:00:00 11,3 9,7 - - 15 8 S 1020,6 0 0,0
16.02.2019 15:00:00 12,0 9,6 - - 13 7 SSW 1021,0 0 0,0
16.02.2019 14:00:00 11,4 9,3 - - 15 8 SW 1021,6 0 0,0
16.02.2019 13:00:00 11,7 9,3 - - 16 9 SW 1021,9 0 0,0
16.02.2019 12:00:00 11,5 9,1 - - 15 8 SSW 1022,3 0 0,0
16.02.2019 11:00:00 10,9 9,0 - - 16 9 SSW 1022,4 0 0,0
16.02.2019 10:00:00 10,3 9,2 - - 9 5 SSW 1022,3 0 0,0
16.02.2019 09:00:00 10,1 9,2 5,7 7,0 13 7 SSW 1022,3 0 0,0
16.02.2019 08:00:00 10,0 9,4 - - 11 6 SSW 1021,8 0 0,0
16.02.2019 07:00:00 9,7 9,3 - - 13 7 SW 1021,5 0 0,0
16.02.2019 06:00:00 8,6 8,2 - - 9 5 SSW 1021,4 0 0,0
16.02.2019 05:00:00 8,1 7,6 - - 8 4 SSW 1021,5 0 0,0
16.02.2019 04:00:00 7,6 6,8 - - 8 4 S 1021,4 0 0,0
16.02.2019 03:00:00 7,2 6,4 - - 9 5 S 1021,8 0 0,0
16.02.2019 02:00:00 6,0 5,1 - - 5 3 SSW 1022,1 0 0,0
16.02.2019 01:00:00 6,0 5,0 - - 9 5 SSW 1022,6 0 0,0
16.02.2019 00:00:00 5,4 4,2 - - 9 5 SSW 1023,2 - 0,0
15.02.2019 23:00:00 6,2 4,5 - - 9 5 S 1023,3 0 0,0
15.02.2019 22:00:00 6,4 4,8 - - 13 7 S 1023,3 0 0,0
15.02.2019 21:00:00 6,6 4,5 - - 15 8 S 1023,6 0 0,0
15.02.2019 20:00:00 7,0 4,6 - - 11 6 S 1023,8 0 0,0
15.02.2019 19:00:00 8,3 4,8 - - 21 11 S 1023,6 0 0,0
15.02.2019 18:00:00 9,2 5,5 - - 18 10 SSE 1023,6 6 0,0
15.02.2019 17:00:00 11,1 5,5 - - 16 9 SSE 1023,5 60 0,0
15.02.2019 16:00:00 13,1 5,9 - - 15 8 S 1023,8 60 0,0
15.02.2019 15:00:00 13,2 7,2 - - 13 7 S 1024,1 60 0,0
15.02.2019 14:00:00 12,5 6,5 - - 16 9 S 1024,9 60 0,0
15.02.2019 13:00:00 12,2 6,2 - - 15 8 S 1025,5 60 0,0
15.02.2019 12:00:00 10,4 6,2 - - 15 8 S 1026,2 60 0,0
15.02.2019 11:00:00 8,9 5,6 - - 13 7 S 1026,7 60 0,0
15.02.2019 10:00:00 6,9 4,4 - - 11 6 S 1027,2 60 0,0
15.02.2019 09:00:00 5,1 3,4 5,4 7,0 9 5 S 1027,4 60 0,0
15.02.2019 08:00:00 4,0 2,8 - - 8 4 S 1027,4 6 0,0
15.02.2019 07:00:00 3,9 2,9 - - 11 6 S 1027,3 0 0,0
15.02.2019 06:00:00 4,1 3,0 - - 13 7 S 1027,4 0 0,0
15.02.2019 05:00:00 3,6 2,9 - - 9 5 SSW 1027,7 0 0,0
15.02.2019 04:00:00 3,7 2,9 - - 11 6 S 1027,9 0 0,0
15.02.2019 03:00:00 3,8 3,2 - - 9 5 SSW 1028,2 0 0,0
15.02.2019 02:00:00 4,4 3,3 - - 8 4 S 1028,3 0 0,2
15.02.2019 01:00:00 4,2 3,3 - - 8 4 S 1028,9 0 0,0
15.02.2019 00:00:00 3,8 2,8 - - 9 5 SSE 1029,2 - 0,0
14.02.2019 23:00:00 3,6 2,2 - - 15 8 SE 1029,3 0 0,0
14.02.2019 22:00:00 3,5 2,0 - - 4 2 S 1029,6 0 0,0
14.02.2019 21:00:00 4,2 2,4 - - 11 6 SSE 1029,5 0 0,0
14.02.2019 20:00:00 3,6 1,1 - - 9 5 SE 1029,9 0 0,0
14.02.2019 19:00:00 4,7 1,4 - - 8 4 ESE 1029,8 0 0,0
14.02.2019 18:00:00 6,3 2,3 - - 11 6 SE 1029,7 12 0,0
14.02.2019 17:00:00 8,6 2,8 - - 15 8 SSE 1029,5 60 0,0
14.02.2019 16:00:00 10,7 3,7 - - 18 10 SSE 1029,6 60 0,0
14.02.2019 15:00:00 11,2 5,0 - - 16 9 SSE 1029,9 60 0,0
14.02.2019 14:00:00 10,8 5,0 - - 15 8 SSE 1030,4 60 0,0
14.02.2019 13:00:00 9,4 5,6 - - 9 5 S 1031,2 60 0,0
14.02.2019 12:00:00 7,4 6,2 - - 11 6 S 1032,1 60 0,0
14.02.2019 11:00:00 5,6 5,6 - - 8 4 S 1032,3 6 0,0
14.02.2019 10:00:00 3,7 3,7 - - 9 5 S 1032,5 0 0,0
14.02.2019 09:00:00 3,2 3,2 5,5 7,0 5 3 S 1032,7 0 0,0
14.02.2019 08:00:00 2,8 2,8 - - 2 1 SSE 1032,7 0 0,0
14.02.2019 07:00:00 2,7 2,7 - - 5 3 S 1032,2 0 0,0
14.02.2019 06:00:00 2,7 2,7 - - 2 1 SSE 1032,1 0 0,0
14.02.2019 05:00:00 2,9 2,8 - - 4 2 SSE 1032,2 0 0,0
14.02.2019 04:00:00 3,5 3,4 - - 11 6 S 1032,0 0 0,0
14.02.2019 03:00:00 3,6 3,4 - - 8 4 S 1032,3 0 0,0
14.02.2019 02:00:00 4,2 3,9 - - 9 5 S 1032,3 0 0,0
14.02.2019 01:00:00 4,5 4,3 - - 13 7 S 1032,5 0 0,0
14.02.2019 00:00:00 4,3 4,0 - - 11 6 S 1032,5 - 0,0
13.02.2019 23:00:00 4,3 3,8 - - 11 6 SSW 1032,2 0 0,0
13.02.2019 22:00:00 4,8 4,3 - - 9 5 SSW 1032,3 0 0,0
13.02.2019 21:00:00 4,9 4,2 - - 11 6 S 1032,2 0 0,0
13.02.2019 20:00:00 5,5 4,4 - - 11 6 S 1031,8 0 0,0
13.02.2019 19:00:00 6,7 4,7 - - 13 7 S 1031,5 0 0,0
13.02.2019 18:00:00 7,4 4,7 - - 15 8 S 1031,3 0 0,0
13.02.2019 17:00:00 8,4 5,0 - - 16 9 S 1031,0 0 0,0
13.02.2019 16:00:00 9,1 5,2 - - 15 8 S 1031,3 0 0,0
13.02.2019 15:00:00 9,6 5,3 - - 11 6 S 1032,0 0 0,0
13.02.2019 14:00:00 9,7 5,3 - - 16 9 S 1032,0 6 0,0
13.02.2019 13:00:00 9,4 5,6 - - 18 10 SSW 1032,1 0 0,0
13.02.2019 12:00:00 8,9 5,5 - - 21 11 SSW 1032,4 0 0,0
13.02.2019 11:00:00 8,6 6,2 - - 16 9 S 1032,1 6 0,0
13.02.2019 10:00:00 6,8 5,7 - - 13 7 S 1032,3 0 0,0
13.02.2019 09:00:00 6,3 4,9 5,5 6,9 13 7 S 1032,5 0 0,0
13.02.2019 08:00:00 6,0 4,7 - - 11 6 S 1032,4 0 0,0
13.02.2019 07:00:00 6,9 5,4 - - 13 7 S 1032,1 0 0,0
13.02.2019 06:00:00 7,6 5,7 - - 13 7 SSW 1032,3 0 0,0
13.02.2019 05:00:00 7,6 6,2 - - 13 7 S 1032,3 0 0,0
13.02.2019 04:00:00 7,5 6,6 - - 9 5 SSW 1032,5 0 0,0
13.02.2019 03:00:00 7,6 6,9 - - 8 4 SSW 1032,7 0 0,0
13.02.2019 02:00:00 7,6 6,9 - - 5 3 SSW 1033,2 0 0,0
13.02.2019 01:00:00 7,7 6,9 - - 5 3 SSW 1033,3 0 0,0
13.02.2019 00:00:00 7,6 6,8 - - 8 4 S 1033,4 - 0,0
12.02.2019 23:00:00 7,7 6,6 - - 5 3 SSW 1033,5 0 0,0
12.02.2019 22:00:00 8,0 6,6 - - 9 5 SSW 1033,4 0 0,0
12.02.2019 21:00:00 8,1 6,4 - - 13 7 SW 1033,3 0 0,0
12.02.2019 20:00:00 8,1 6,2 - - 11 6 SW 1033,2 0 0,0
12.02.2019 19:00:00 8,1 6,1 - - 11 6 SSW 1033,1 0 0,0
12.02.2019 18:00:00 8,5 6,3 - - 11 6 SW 1033,0 0 0,0
12.02.2019 17:00:00 8,8 5,8 - - 11 6 SW 1032,8 0 0,0
12.02.2019 16:00:00 9,4 5,9 - - 11 6 SW 1032,5 0 0,0

tt = Température de l'air
td = dewpoint
tt -20cm = Température de l'air -20cm
tt -100cm = Température de l'air -100cm
ff = Vitesse du vent
dd = Direction du vent
ppp = reduced air pressure
sd = Ensoleillement
rr = Quantités de précipitations

stations d'obs. à proximité